createdAt,value
2022-08-09T00:00:21.519Z,45.90
2022-08-09T00:02:51.882Z,45.92
2022-08-09T00:06:19.202Z,45.19
2022-08-09T00:08:12.833Z,44.97
2022-08-09T00:10:42.549Z,44.65
2022-08-09T00:13:16.699Z,46.55
2022-08-09T00:15:58.735Z,46.01
2022-08-09T00:18:31.418Z,46.18
2022-08-09T00:21:04.515Z,45.79
2022-08-09T00:23:55.642Z,46.30
2022-08-09T00:26:30.057Z,45.78
2022-08-09T00:29:01.556Z,46.76
2022-08-09T00:31:57.229Z,46.50
2022-08-09T00:34:19.238Z,46.24
2022-08-09T00:36:48.916Z,45.87
2022-08-09T00:40:09.100Z,46.23
2022-08-09T00:44:16.716Z,45.83
2022-08-09T00:44:55.945Z,46.97
2022-08-09T00:47:25.395Z,46.68
2022-08-09T00:49:55.064Z,46.13
2022-08-09T00:52:28.167Z,46.97
2022-08-09T00:55:00.320Z,47.08
2022-08-09T00:57:33.915Z,46.28
2022-08-09T01:00:21.423Z,45.66
2022-08-09T01:02:52.678Z,46.12
2022-08-09T01:05:51.125Z,47.23
2022-08-09T01:08:26.859Z,47.71
2022-08-09T01:11:08.519Z,48.02
2022-08-09T01:13:58.947Z,47.68
2022-08-09T01:16:35.292Z,47.44
2022-08-09T01:19:17.147Z,48.08
2022-08-09T01:22:34.694Z,47.61
2022-08-09T01:25:19.127Z,47.99
2022-08-09T01:27:52.487Z,47.56
2022-08-09T01:30:28.551Z,47.08
2022-08-09T01:33:03.474Z,47.96
2022-08-09T01:35:39.220Z,49.17
2022-08-09T01:38:15.388Z,48.30
2022-08-09T01:40:52.641Z,48.73
2022-08-09T01:43:51.331Z,48.87
2022-08-09T01:46:25.142Z,48.05
2022-08-09T01:48:57.192Z,49.30
2022-08-09T01:51:32.254Z,48.72
2022-08-09T01:54:02.685Z,48.72
2022-08-09T01:56:34.307Z,49.31
2022-08-09T01:59:09.254Z,48.93
2022-08-09T02:01:58.020Z,49.99
2022-08-09T02:04:29.575Z,49.04
2022-08-09T02:07:17.973Z,49.08
2022-08-09T02:10:04.129Z,49.60
2022-08-09T02:12:34.710Z,49.85
2022-08-09T02:15:08.570Z,50.50
2022-08-09T02:18:09.944Z,49.25
2022-08-09T02:20:36.233Z,48.88
2022-08-09T02:23:08.958Z,48.82
2022-08-09T02:25:42.190Z,50.62
2022-08-09T02:28:20.308Z,49.70
2022-08-09T02:30:55.120Z,50.25
2022-08-09T02:33:58.744Z,49.07
2022-08-09T02:36:23.458Z,50.05
2022-08-09T02:38:56.625Z,49.42
2022-08-09T02:41:29.244Z,49.68
2022-08-09T02:44:10.515Z,50.36
2022-08-09T02:46:52.460Z,50.39
2022-08-09T02:49:20.764Z,50.25
2022-08-09T02:52:08.624Z,50.57
2022-08-09T02:54:54.566Z,50.46
2022-08-09T02:57:25.258Z,50.54
2022-08-09T03:00:20.722Z,50.28
2022-08-09T03:03:00.125Z,50.94
2022-08-09T03:05:29.814Z,50.43
2022-08-09T03:08:04.785Z,50.03
2022-08-09T03:10:35.155Z,50.62
2022-08-09T03:13:08.644Z,50.66
2022-08-09T03:16:05.993Z,51.23
2022-08-09T03:18:31.245Z,51.24
2022-08-09T03:21:02.952Z,50.55
2022-08-09T03:23:31.456Z,51.63
2022-08-09T03:26:03.465Z,51.64
2022-08-09T03:28:35.538Z,52.22
2022-08-09T03:31:04.257Z,51.72
2022-08-09T03:33:53.240Z,50.54
2022-08-09T03:36:27.784Z,51.37
2022-08-09T03:38:57.932Z,51.09
2022-08-09T03:41:30.010Z,50.02
2022-08-09T03:44:12.914Z,50.04
2022-08-09T03:46:44.011Z,49.94
2022-08-09T03:49:17.364Z,50.67
2022-08-09T03:51:58.397Z,51.19
2022-08-09T03:54:32.108Z,50.37
2022-08-09T03:57:04.503Z,51.39
2022-08-09T03:59:54.141Z,51.78
2022-08-09T04:02:26.474Z,51.92
2022-08-09T04:04:58.990Z,52.27
2022-08-09T04:07:47.465Z,51.12
2022-08-09T04:10:18.419Z,51.61
2022-08-09T04:12:50.919Z,52.75
2022-08-09T04:15:42.648Z,52.57
2022-08-09T04:18:16.572Z,53.09
2022-08-09T04:20:48.037Z,52.59
2022-08-09T04:23:17.905Z,52.35
2022-08-09T04:25:52.968Z,51.76
2022-08-09T04:28:33.941Z,52.57
2022-08-09T04:31:10.073Z,53.41
2022-08-09T04:33:51.728Z,52.46
2022-08-09T04:36:24.438Z,51.71
2022-08-09T04:38:52.755Z,52.27
2022-08-09T04:41:23.722Z,52.54
2022-08-09T04:44:04.873Z,51.58
2022-08-09T04:46:38.036Z,52.00
2022-08-09T04:49:30.476Z,51.83
2022-08-09T04:52:18.368Z,52.07
2022-08-09T04:54:51.613Z,54.20
2022-08-09T04:57:21.581Z,52.31
2022-08-09T04:59:52.504Z,52.08
2022-08-09T05:02:20.525Z,51.58
2022-08-09T05:04:48.645Z,52.11
2022-08-09T05:07:27.861Z,52.27
2022-08-09T05:10:01.730Z,52.48
2022-08-09T05:12:32.860Z,51.44
2022-08-09T05:15:03.632Z,52.46
2022-08-09T05:18:39.850Z,51.22
2022-08-09T05:20:29.991Z,51.59
2022-08-09T05:23:54.200Z,50.79
2022-08-09T05:25:50.838Z,50.86
2022-08-09T05:28:19.733Z,51.90
2022-08-09T05:30:48.176Z,51.18
2022-08-09T05:33:16.225Z,51.95
2022-08-09T05:35:46.762Z,51.85
2022-08-09T05:38:22.029Z,50.85
2022-08-09T05:40:50.974Z,52.09
2022-08-09T05:43:20.664Z,52.24
2022-08-09T05:45:57.152Z,51.88
2022-08-09T05:48:27.858Z,51.58
2022-08-09T05:51:42.354Z,51.91
2022-08-09T05:53:56.809Z,51.55
2022-08-09T05:56:28.225Z,51.57
2022-08-09T05:58:58.674Z,51.22
2022-08-09T06:01:33.484Z,50.65
2022-08-09T06:04:05.837Z,51.57
2022-08-09T06:06:34.368Z,51.15
2022-08-09T06:09:05.591Z,51.56
2022-08-09T06:11:56.677Z,50.96
2022-08-09T06:14:25.686Z,51.67
2022-08-09T06:16:55.261Z,50.82
2022-08-09T06:19:25.423Z,50.81
2022-08-09T06:21:58.610Z,50.24
2022-08-09T06:24:28.748Z,49.80
2022-08-09T06:26:56.814Z,50.32
2022-08-09T06:29:24.872Z,49.89
2022-08-09T06:32:09.350Z,49.09
2022-08-09T06:34:43.408Z,49.59
2022-08-09T06:37:11.536Z,49.75
2022-08-09T06:39:57.456Z,48.80
2022-08-09T06:42:30.501Z,49.27
2022-08-09T06:45:52.124Z,48.31
2022-08-09T06:47:49.900Z,47.42
2022-08-09T06:50:31.076Z,47.56
2022-08-09T06:53:00.850Z,46.81
2022-08-09T06:55:33.023Z,46.79
2022-08-09T06:58:04.363Z,46.50
2022-08-09T07:00:54.117Z,45.65
2022-08-09T07:03:27.742Z,45.63
2022-08-09T07:06:02.998Z,47.47
2022-08-09T07:08:34.298Z,45.46
2022-08-09T07:11:04.360Z,44.98
2022-08-09T07:13:44.986Z,44.77
2022-08-09T07:16:41.780Z,46.56
2022-08-09T07:19:15.523Z,44.59
2022-08-09T07:21:55.994Z,45.53
2022-08-09T07:24:32.041Z,46.04
2022-08-09T07:27:03.048Z,44.38
2022-08-09T07:29:38.107Z,44.49
2022-08-09T07:32:11.033Z,45.57
2022-08-09T07:34:39.042Z,43.49
2022-08-09T07:37:15.548Z,43.54
2022-08-09T07:39:44.200Z,42.45
2022-08-09T07:42:16.017Z,42.95
2022-08-09T07:44:53.352Z,41.75
2022-08-09T07:47:49.207Z,41.33
2022-08-09T07:50:11.000Z,40.99
2022-08-09T07:52:42.945Z,41.54
2022-08-09T07:55:11.741Z,40.78
2022-08-09T07:57:47.191Z,41.07
2022-08-09T08:00:20.879Z,40.22
2022-08-09T08:03:05.257Z,40.53
2022-08-09T08:05:39.135Z,40.68
2022-08-09T08:09:02.016Z,42.70
2022-08-09T08:12:09.163Z,41.35
2022-08-09T08:14:01.893Z,41.62
2022-08-09T08:16:32.292Z,42.26
2022-08-09T08:19:02.928Z,41.90
2022-08-09T08:21:31.654Z,40.62
2022-08-09T08:24:01.010Z,40.69
2022-08-09T08:26:54.510Z,44.94
2022-08-09T08:29:20.027Z,41.29
2022-08-09T08:32:03.273Z,40.71
2022-08-09T08:34:36.139Z,40.88
2022-08-09T08:37:05.154Z,41.35
2022-08-09T08:39:39.991Z,41.34
2022-08-09T08:42:12.332Z,44.09
2022-08-09T08:44:43.918Z,43.82
2022-08-09T08:47:15.542Z,43.36
2022-08-09T08:49:48.501Z,42.30
2022-08-09T08:55:07.788Z,42.91
2022-08-09T08:57:37.484Z,41.56
2022-08-09T09:00:17.154Z,40.65
2022-08-09T09:02:52.934Z,38.64
2022-08-09T09:05:58.237Z,39.14
2022-08-09T09:08:30.258Z,40.25
2022-08-09T09:11:02.986Z,41.00
2022-08-09T09:13:34.766Z,39.34
2022-08-09T09:16:29.818Z,39.79
2022-08-09T09:19:22.751Z,39.44
2022-08-09T09:22:03.939Z,38.58
2022-08-09T09:24:37.785Z,37.23
2022-08-09T09:27:08.636Z,32.96
2022-08-09T09:30:13.990Z,33.15
2022-08-09T09:32:34.686Z,31.74
2022-08-09T09:35:09.057Z,31.62
2022-08-09T09:37:40.167Z,31.59
2022-08-09T09:40:10.238Z,31.16
2022-08-09T09:42:42.794Z,33.80
2022-08-09T09:45:26.628Z,29.29
2022-08-09T09:47:59.564Z,32.23
2022-08-09T09:50:50.850Z,31.73
2022-08-09T09:53:25.032Z,30.47
2022-08-09T09:56:20.067Z,28.98
2022-08-09T09:58:58.691Z,28.60
2022-08-09T10:01:38.163Z,30.32
2022-08-09T10:04:16.018Z,30.02
2022-08-09T10:06:53.901Z,29.37
2022-08-09T10:09:23.979Z,31.00
2022-08-09T10:12:11.812Z,30.72
2022-08-09T10:14:47.699Z,29.78
2022-08-09T10:17:39.972Z,28.68
2022-08-09T10:20:27.409Z,30.73
2022-08-09T10:23:17.420Z,27.07
2022-08-09T10:26:06.727Z,28.09
2022-08-09T10:28:38.223Z,29.46
2022-08-09T10:34:10.790Z,27.38
2022-08-09T10:36:46.052Z,26.05
2022-08-09T10:39:18.357Z,26.95
2022-08-09T10:41:48.356Z,26.77
2022-08-09T10:44:21.751Z,28.25
2022-08-09T10:47:14.197Z,26.58
2022-08-09T10:50:06.322Z,27.79
2022-08-09T10:53:13.087Z,25.48
2022-08-09T10:55:55.700Z,25.97
2022-08-09T10:58:33.932Z,25.17
2022-08-09T11:03:02.388Z,27.35
2022-08-09T11:04:19.989Z,26.52
2022-08-09T11:07:58.427Z,28.11
2022-08-09T11:10:47.059Z,27.42
2022-08-09T11:13:50.826Z,27.34
2022-08-09T11:16:35.542Z,26.15
2022-08-09T11:19:09.508Z,25.87
2022-08-09T11:22:10.262Z,27.73
2022-08-09T11:25:10.359Z,29.48
2022-08-09T11:28:03.971Z,28.92
2022-08-09T11:30:35.738Z,30.11
2022-08-09T11:33:06.038Z,31.13
2022-08-09T11:35:49.653Z,28.92
2022-08-09T11:38:32.186Z,29.81
2022-08-09T11:41:05.551Z,31.50
2022-08-09T11:43:44.504Z,31.16
2022-08-09T11:46:18.640Z,29.57
2022-08-09T11:49:05.288Z,29.39
2022-08-09T11:53:02.499Z,28.07
2022-08-09T11:55:34.932Z,27.67
2022-08-09T11:58:42.199Z,25.64
2022-08-09T12:02:15.865Z,25.29
2022-08-09T12:04:20.856Z,27.92
2022-08-09T12:06:57.735Z,27.62
2022-08-09T12:09:33.808Z,27.18
2022-08-09T12:12:12.947Z,28.26
2022-08-09T12:15:04.682Z,28.11
2022-08-09T12:17:43.298Z,27.91
2022-08-09T12:20:21.852Z,25.07
2022-08-09T12:22:52.700Z,25.60
2022-08-09T12:25:36.307Z,27.32
2022-08-09T12:29:10.809Z,27.98
2022-08-09T12:30:58.811Z,28.96
2022-08-09T12:33:51.487Z,30.61
2022-08-09T12:36:31.950Z,29.11
2022-08-09T12:39:02.411Z,29.49
2022-08-09T12:41:39.725Z,31.21
2022-08-09T12:44:12.751Z,31.78
2022-08-09T12:46:43.068Z,31.21
2022-08-09T12:49:12.058Z,31.11
2022-08-09T12:52:00.029Z,31.67
2022-08-09T12:54:29.030Z,30.12
2022-08-09T12:57:00.362Z,28.28
2022-08-09T12:59:39.951Z,27.98
2022-08-09T13:02:21.693Z,30.75
2022-08-09T13:05:02.361Z,30.55
2022-08-09T13:07:50.221Z,29.51
2022-08-09T13:10:18.892Z,29.23
2022-08-09T13:13:09.197Z,28.66
2022-08-09T13:15:52.171Z,28.87
2022-08-09T13:18:27.298Z,30.20
2022-08-09T13:22:33.955Z,29.30
2022-08-09T13:24:16.461Z,28.36
2022-08-09T13:26:37.235Z,27.72
2022-08-09T13:29:13.273Z,27.88
2022-08-09T13:32:20.234Z,26.48
2022-08-09T13:34:46.752Z,28.09
2022-08-09T13:37:24.680Z,27.78
2022-08-09T13:41:52.043Z,27.82
2022-08-09T13:42:51.848Z,28.36
2022-08-09T13:45:21.530Z,27.93
2022-08-09T13:48:00.009Z,26.54
2022-08-09T13:50:30.813Z,26.94
2022-08-09T13:52:59.911Z,28.29
2022-08-09T13:55:28.788Z,28.55
2022-08-09T13:57:58.503Z,29.37
2022-08-09T14:00:30.439Z,29.33
2022-08-09T14:03:16.739Z,28.28
2022-08-09T14:05:57.065Z,28.92
2022-08-09T14:08:28.752Z,30.88
2022-08-09T14:11:00.267Z,28.90
2022-08-09T14:14:22.088Z,30.17
2022-08-09T14:16:28.011Z,30.35
2022-08-09T14:18:58.513Z,30.02
2022-08-09T14:21:29.286Z,29.79
2022-08-09T14:24:01.275Z,30.88
2022-08-09T14:26:34.397Z,31.22
2022-08-09T14:29:25.609Z,29.79
2022-08-09T14:31:57.474Z,31.45
2022-08-09T14:34:31.609Z,29.70
2022-08-09T14:37:05.998Z,32.21
2022-08-09T14:39:47.418Z,30.28
2022-08-09T14:42:31.929Z,30.61
2022-08-09T14:46:55.820Z,30.42
2022-08-09T14:47:58.423Z,30.49
2022-08-09T14:50:28.253Z,30.52
2022-08-09T14:52:56.334Z,30.23
2022-08-09T14:55:25.802Z,30.49
2022-08-09T14:58:00.243Z,30.65
2022-08-09T15:00:34.879Z,30.10
2022-08-09T15:03:08.842Z,30.91
2022-08-09T15:05:39.701Z,30.18
2022-08-09T15:08:18.882Z,31.65
2022-08-09T15:11:01.635Z,30.85
2022-08-09T15:13:55.870Z,29.59
2022-08-09T15:16:23.310Z,30.16
2022-08-09T15:19:05.895Z,31.04
2022-08-09T15:21:56.275Z,31.78
2022-08-09T15:24:27.982Z,30.55
2022-08-09T15:26:56.391Z,31.63
2022-08-09T15:30:56.811Z,31.85
2022-08-09T15:32:28.400Z,30.50
2022-08-09T15:35:00.946Z,30.27
2022-08-09T15:37:36.894Z,30.62
2022-08-09T15:40:11.838Z,31.11
2022-08-09T15:42:43.306Z,30.72
2022-08-09T15:45:15.183Z,31.11
2022-08-09T15:48:02.505Z,31.29
2022-08-09T15:50:39.079Z,30.69
2022-08-09T15:53:18.516Z,32.28
2022-08-09T15:56:20.939Z,30.76
2022-08-09T15:58:43.660Z,30.55
2022-08-09T16:01:11.833Z,31.15
2022-08-09T16:03:41.711Z,32.90
2022-08-09T16:06:16.128Z,31.87
2022-08-09T16:09:01.209Z,31.13
2022-08-09T16:11:33.019Z,30.71
2022-08-09T16:14:06.016Z,30.08
2022-08-09T16:16:36.956Z,32.61
2022-08-09T16:19:06.111Z,30.30
2022-08-09T16:21:37.710Z,32.20
2022-08-09T16:24:08.841Z,31.28
2022-08-09T16:26:55.112Z,31.12
2022-08-09T16:29:36.881Z,31.33
2022-08-09T16:32:18.561Z,31.53
2022-08-09T16:34:56.446Z,31.87
2022-08-09T16:37:54.604Z,31.28
2022-08-09T16:40:20.664Z,31.12
2022-08-09T16:42:58.655Z,31.05
2022-08-09T16:45:27.155Z,31.56
2022-08-09T16:48:39.645Z,32.65
2022-08-09T16:50:58.856Z,31.49
2022-08-09T16:53:32.540Z,31.67
2022-08-09T16:56:09.397Z,32.20
2022-08-09T16:58:39.808Z,32.04
2022-08-09T17:01:10.885Z,32.83
2022-08-09T17:03:41.659Z,32.22
2022-08-09T17:06:28.987Z,33.54
2022-08-09T17:09:11.723Z,33.15
2022-08-09T17:11:51.312Z,33.25
2022-08-09T17:14:25.566Z,32.70
2022-08-09T17:16:59.818Z,32.32
2022-08-09T17:19:47.607Z,32.27
2022-08-09T17:22:24.748Z,34.22
2022-08-09T17:25:03.229Z,33.15
2022-08-09T17:27:32.928Z,33.27
2022-08-09T17:30:04.840Z,33.20
2022-08-09T17:32:37.786Z,34.70
2022-08-09T17:35:11.382Z,34.77
2022-08-09T17:38:12.112Z,33.59
2022-08-09T17:40:32.663Z,33.04
2022-08-09T17:43:32.342Z,33.72
2022-08-09T17:46:03.288Z,34.02
2022-08-09T17:48:33.917Z,33.28
2022-08-09T17:51:09.726Z,33.75
2022-08-09T17:53:51.407Z,34.10
2022-08-09T17:56:26.552Z,34.41
2022-08-09T17:58:57.067Z,34.58
2022-08-09T18:01:25.140Z,34.89
2022-08-09T18:03:54.237Z,34.48
2022-08-09T18:06:32.219Z,34.29
2022-08-09T18:09:03.090Z,34.49
2022-08-09T18:12:05.162Z,34.67
2022-08-09T18:14:22.714Z,34.83
2022-08-09T18:16:51.017Z,35.69
2022-08-09T18:20:58.070Z,35.99
2022-08-09T18:22:12.982Z,35.53
2022-08-09T18:24:41.497Z,35.33
2022-08-09T18:27:13.595Z,35.79
2022-08-09T18:30:41.056Z,35.80
2022-08-09T18:32:30.291Z,35.96
2022-08-09T18:34:58.464Z,35.49
2022-08-09T18:37:46.890Z,36.00
2022-08-09T18:40:15.529Z,35.86
2022-08-09T18:42:47.868Z,36.40
2022-08-09T18:46:44.927Z,35.84
2022-08-09T18:48:03.861Z,36.27
2022-08-09T18:50:33.528Z,36.39
2022-08-09T18:53:02.043Z,37.34
2022-08-09T18:55:56.586Z,36.46
2022-08-09T18:58:32.008Z,37.05
2022-08-09T19:01:00.743Z,36.97
2022-08-09T19:03:28.967Z,36.83
2022-08-09T19:06:03.466Z,37.47
2022-08-09T19:08:32.276Z,37.49
2022-08-09T19:11:00.354Z,37.18
2022-08-09T19:13:46.802Z,37.38
2022-08-09T19:16:20.818Z,38.08
2022-08-09T19:18:49.700Z,39.11
2022-08-09T19:21:21.636Z,37.87
2022-08-09T19:24:38.413Z,37.85
2022-08-09T19:26:55.005Z,38.38
2022-08-09T19:29:24.816Z,38.06
2022-08-09T19:31:53.169Z,37.66
2022-08-09T19:34:28.367Z,37.96
2022-08-09T19:36:58.603Z,38.09
2022-08-09T19:39:42.873Z,38.38
2022-08-09T19:42:19.244Z,39.65
2022-08-09T19:44:51.093Z,38.67
2022-08-09T19:47:22.623Z,39.00
2022-08-09T19:50:07.436Z,39.08
2022-08-09T19:52:38.652Z,39.66
2022-08-09T19:55:30.607Z,39.94
2022-08-09T19:58:16.017Z,39.51
2022-08-09T20:00:47.385Z,39.67
2022-08-09T20:04:27.880Z,39.71
2022-08-09T20:06:10.495Z,41.70
2022-08-09T20:08:51.443Z,40.92
2022-08-09T20:11:21.547Z,40.57
2022-08-09T20:13:54.926Z,40.64
2022-08-09T20:16:37.770Z,40.51
2022-08-09T20:19:47.987Z,41.20
2022-08-09T20:22:00.174Z,40.73
2022-08-09T20:24:33.831Z,41.38
2022-08-09T20:27:05.637Z,41.00
2022-08-09T20:29:38.628Z,41.28
2022-08-09T20:32:30.615Z,42.19
2022-08-09T20:34:58.109Z,41.96
2022-08-09T20:38:19.562Z,41.98
2022-08-09T20:40:18.989Z,42.08
2022-08-09T20:43:00.077Z,42.87
2022-08-09T20:46:01.812Z,42.38
2022-08-09T20:48:31.016Z,42.65
2022-08-09T20:50:59.597Z,42.66
2022-08-09T20:53:36.703Z,42.99
2022-08-09T20:56:08.704Z,43.00
2022-08-09T20:58:38.091Z,42.82
2022-08-09T21:01:33.622Z,43.26
2022-08-09T21:05:48.720Z,43.01
2022-08-09T21:06:45.140Z,43.00
2022-08-09T21:09:24.779Z,43.19
2022-08-09T21:14:38.244Z,43.60
2022-08-09T21:18:22.560Z,43.39
2022-08-09T21:20:18.315Z,43.70
2022-08-09T21:22:46.987Z,45.59
2022-08-09T21:25:38.580Z,44.66
2022-08-09T21:28:07.565Z,44.42
2022-08-09T21:30:40.865Z,44.40
2022-08-09T21:33:09.281Z,44.39
2022-08-09T21:35:51.009Z,44.77
2022-08-09T21:38:30.837Z,45.60
2022-08-09T21:40:59.093Z,45.34
2022-08-09T21:43:56.775Z,45.67
2022-08-09T21:46:16.382Z,46.16
2022-08-09T21:48:49.044Z,46.15
2022-08-09T21:51:35.754Z,45.89
2022-08-09T21:54:04.768Z,46.34
2022-08-09T21:56:42.807Z,46.98
2022-08-09T21:59:16.166Z,46.58
2022-08-09T22:02:01.178Z,46.30
2022-08-09T22:04:55.532Z,47.06
2022-08-09T22:07:35.051Z,47.35
2022-08-09T22:10:09.699Z,47.80
2022-08-09T22:12:38.908Z,47.53
2022-08-09T22:15:16.588Z,48.05
2022-08-09T22:17:47.222Z,47.64
2022-08-09T22:20:17.114Z,48.36
2022-08-09T22:22:51.496Z,47.80
2022-08-09T22:26:07.454Z,48.35
2022-08-09T22:28:08.684Z,49.10
2022-08-09T22:30:36.894Z,48.76
2022-08-09T22:33:09.391Z,48.86
2022-08-09T22:35:59.884Z,48.75
2022-08-09T22:38:27.578Z,49.26
2022-08-09T22:40:58.134Z,49.17
2022-08-09T22:44:02.427Z,49.95
2022-08-09T22:48:16.514Z,49.64
2022-08-09T22:49:10.271Z,50.22
2022-08-09T22:51:43.531Z,50.67
2022-08-09T22:54:21.415Z,50.12
2022-08-09T22:56:50.888Z,50.79
2022-08-09T22:59:58.317Z,51.08
2022-08-09T23:02:15.158Z,51.25
2022-08-09T23:04:53.685Z,51.85
2022-08-09T23:08:27.414Z,51.48
2022-08-09T23:10:32.077Z,52.12
2022-08-09T23:13:01.022Z,52.55
2022-08-09T23:15:30.651Z,52.07
2022-08-09T23:17:58.861Z,52.39
2022-08-09T23:20:28.725Z,52.73
2022-08-09T23:22:56.987Z,52.75
2022-08-09T23:25:25.069Z,52.93
2022-08-09T23:28:09.510Z,52.98
2022-08-09T23:30:51.527Z,53.05
2022-08-09T23:33:21.395Z,52.78
2022-08-09T23:36:04.863Z,52.69
2022-08-09T23:38:35.936Z,52.60
2022-08-09T23:41:27.701Z,52.47
2022-08-09T23:43:59.685Z,53.60
2022-08-09T23:46:28.204Z,53.06
2022-08-09T23:48:56.467Z,54.38
2022-08-09T23:51:28.354Z,54.72
2022-08-09T23:54:02.893Z,53.96
2022-08-09T23:56:52.885Z,54.49
2022-08-09T23:59:24.146Z,54.31
